createdAt,value
2023-02-18T00:00:37.314Z,100989.03
2023-02-18T00:02:39.219Z,100994.28
2023-02-18T00:04:40.946Z,101006.13
2023-02-18T00:06:42.761Z,101000.91
2023-02-18T00:08:46.872Z,100981.09
2023-02-18T00:10:49.424Z,100995.69
2023-02-18T00:12:51.224Z,100990.63
2023-02-18T00:14:54.301Z,100988.56
2023-02-18T00:16:56.060Z,101004.19
2023-02-18T00:18:59.461Z,101013.13
2023-02-18T00:21:03.155Z,101010.41
2023-02-18T00:23:04.846Z,101018.53
2023-02-18T00:25:08.349Z,100995.38
2023-02-18T00:27:09.965Z,101009.78
2023-02-18T00:29:12.209Z,101007.06
2023-02-18T00:31:16.106Z,101002.19
2023-02-18T00:33:17.768Z,101006.41
2023-02-18T00:35:19.418Z,101010.13
2023-02-18T00:37:21.003Z,101019.13
2023-02-18T00:39:22.725Z,101038.41
2023-02-18T00:41:28.540Z,101029.25
2023-02-18T00:43:30.936Z,101031.50
2023-02-18T00:45:32.525Z,101054.38
2023-02-18T00:47:34.233Z,101033.56
2023-02-18T00:49:35.879Z,101021.59
2023-02-18T00:51:37.644Z,101025.81
2023-02-18T00:53:39.907Z,101031.41
2023-02-18T00:55:42.476Z,101034.75
2023-02-18T00:57:45.803Z,101034.47
2023-02-18T00:59:47.431Z,101001.78
2023-02-18T01:01:49.063Z,101015.88
2023-02-18T01:03:50.635Z,101033.53
2023-02-18T01:05:53.115Z,101057.88
2023-02-18T01:07:54.984Z,101027.06
2023-02-18T01:09:56.539Z,101027.25
2023-02-18T01:11:58.188Z,101037.59
2023-02-18T01:14:01.205Z,101022.75
2023-02-18T01:16:03.208Z,101041.50
2023-02-18T01:18:05.564Z,101012.78
2023-02-18T01:20:09.113Z,101015.47
2023-02-18T01:22:10.803Z,101026.84
2023-02-18T01:24:12.392Z,101019.38
2023-02-18T01:26:14.139Z,101021.44
2023-02-18T01:28:16.275Z,101019.72
2023-02-18T01:30:20.253Z,101050.88
2023-02-18T01:32:22.127Z,101050.88
2023-02-18T01:34:23.698Z,101048.53
2023-02-18T01:36:25.339Z,101067.50
2023-02-18T01:38:27.024Z,101047.69
2023-02-18T01:40:30.380Z,101043.13
2023-02-18T01:42:32.033Z,101033.31
2023-02-18T01:44:34.395Z,101071.56
2023-02-18T01:46:37.468Z,101042.81
2023-02-18T01:48:42.953Z,101036.09
2023-02-18T01:50:47.847Z,101049.63
2023-02-18T01:52:49.439Z,101042.16
2023-02-18T01:54:54.709Z,101045.88
2023-02-18T01:57:00.121Z,101039.81
2023-02-18T01:59:07.880Z,101020.41
2023-02-18T02:01:10.297Z,101048.97
2023-02-18T02:03:13.398Z,101055.06
2023-02-18T02:05:16.149Z,101053.53
2023-02-18T02:07:21.493Z,101059.97
2023-02-18T02:09:26.845Z,101062.19
2023-02-18T02:12:10.630Z,101051.66
2023-02-18T02:14:35.867Z,101046.44
2023-02-18T02:16:44.062Z,101041.56
2023-02-18T02:19:00.627Z,101038.88
2023-02-18T02:21:39.941Z,101033.63
2023-02-18T02:24:04.798Z,101068.13
2023-02-18T02:26:38.735Z,101043.59
2023-02-18T02:29:24.921Z,101060.03
2023-02-18T02:32:01.429Z,101065.59
2023-02-18T02:34:38.994Z,101055.13
2023-02-18T02:36:50.688Z,101065.13
2023-02-18T02:38:57.108Z,101076.13
2023-02-18T02:41:08.524Z,101066.97
2023-02-18T02:43:18.226Z,101049.25
2023-02-18T02:45:29.166Z,101041.97
2023-02-18T02:47:41.302Z,101054.66
2023-02-18T02:49:50.976Z,101042.34
2023-02-18T02:52:00.675Z,101065.84
2023-02-18T02:54:16.168Z,101045.72
2023-02-18T02:56:19.875Z,101052.84
2023-02-18T02:58:22.408Z,101053.31
2023-02-18T03:00:35.345Z,101060.94
2023-02-18T03:02:49.317Z,101069.72
2023-02-18T03:05:10.822Z,101070.41
2023-02-18T03:07:48.767Z,101070.56
2023-02-18T03:10:08.196Z,101051.81
2023-02-18T03:12:19.425Z,101068.41
2023-02-18T03:14:28.592Z,101070.44
2023-02-18T03:16:37.794Z,101043.56
2023-02-18T03:18:43.845Z,101055.06
2023-02-18T03:20:54.313Z,101046.25
2023-02-18T03:23:02.062Z,101037.34
2023-02-18T03:25:04.936Z,101040.19
2023-02-18T03:27:12.579Z,101037.13
2023-02-18T03:29:18.684Z,101050.16
2023-02-18T03:31:23.974Z,101048.16
2023-02-18T03:33:30.533Z,101046.25
2023-02-18T03:35:32.949Z,101049.81
2023-02-18T03:37:41.332Z,101044.41
2023-02-18T03:39:48.429Z,101026.50
2023-02-18T03:41:50.310Z,101042.75
2023-02-18T03:43:52.338Z,101035.44
2023-02-18T03:45:54.357Z,101054.72
2023-02-18T03:47:56.047Z,101041.03
2023-02-18T03:49:58.080Z,101056.25
2023-02-18T03:51:59.962Z,101058.97
2023-02-18T03:54:01.659Z,101072.50
2023-02-18T03:56:06.691Z,101080.59
2023-02-18T03:58:08.751Z,101060.81
2023-02-18T04:00:11.464Z,101076.84
2023-02-18T04:02:13.208Z,101082.25
2023-02-18T04:04:14.850Z,101090.38
2023-02-18T04:06:16.618Z,101076.19
2023-02-18T04:08:18.241Z,101074.34
2023-02-18T04:10:20.258Z,101091.75
2023-02-18T04:12:24.828Z,101085.31
2023-02-18T04:14:26.605Z,101081.41
2023-02-18T04:16:28.318Z,101083.13
2023-02-18T04:18:30.178Z,101081.41
2023-02-18T04:20:31.811Z,101085.31
2023-02-18T04:22:33.820Z,101095.13
2023-02-18T04:24:35.490Z,101082.47
2023-02-18T04:26:37.254Z,101119.47
2023-02-18T04:28:40.303Z,101101.56
2023-02-18T04:30:42.393Z,101099.84
2023-02-18T04:32:44.031Z,101081.97
2023-02-18T04:34:45.882Z,101089.22
2023-02-18T04:36:48.352Z,101083.16
2023-02-18T04:38:50.033Z,101096.66
2023-02-18T04:40:51.835Z,101075.22
2023-02-18T04:42:53.947Z,101091.44
2023-02-18T04:44:57.321Z,101078.09
2023-02-18T04:46:59.155Z,101099.91
2023-02-18T04:49:01.044Z,101089.91
2023-02-18T04:51:02.772Z,101114.25
2023-02-18T04:53:04.384Z,101093.66
2023-02-18T04:55:07.295Z,101098.22
2023-02-18T04:57:08.924Z,101095.88
2023-02-18T04:59:11.254Z,101101.44
2023-02-18T05:01:14.889Z,101100.44
2023-02-18T05:03:17.400Z,101094.84
2023-02-18T05:05:19.392Z,101099.59
2023-02-18T05:07:21.155Z,101088.13
2023-02-18T05:09:23.322Z,101105.16
2023-02-18T05:11:25.101Z,101103.13
2023-02-18T05:13:26.978Z,101104.00
2023-02-18T05:15:28.586Z,101098.94
2023-02-18T05:17:33.255Z,101105.16
2023-02-18T05:19:35.111Z,101109.75
2023-02-18T05:21:36.975Z,101112.25
2023-02-18T05:23:38.877Z,101111.41
2023-02-18T05:25:42.020Z,101094.34
2023-02-18T05:27:44.127Z,101103.50
2023-02-18T05:29:45.823Z,101104.34
2023-02-18T05:31:47.821Z,101113.09
2023-02-18T05:33:52.503Z,101116.66
2023-02-18T05:35:54.367Z,101107.88
2023-02-18T05:37:56.197Z,101118.34
2023-02-18T05:39:58.088Z,101117.50
2023-02-18T05:41:59.632Z,101121.06
2023-02-18T05:44:01.556Z,101122.72
2023-02-18T05:46:03.204Z,101130.81
2023-02-18T05:48:05.399Z,101128.13
2023-02-18T05:50:09.911Z,101123.75
2023-02-18T05:52:12.203Z,101150.78
2023-02-18T05:54:14.071Z,101124.78
2023-02-18T05:56:15.884Z,101137.44
2023-02-18T05:58:17.895Z,101127.63
2023-02-18T06:00:19.810Z,101133.88
2023-02-18T06:02:21.487Z,101128.47
2023-02-18T06:04:23.459Z,101129.31
2023-02-18T06:06:26.822Z,101143.69
2023-02-18T06:08:28.482Z,101124.78
2023-02-18T06:10:30.049Z,101130.34
2023-02-18T06:12:31.631Z,101138.44
2023-02-18T06:14:33.610Z,101139.66
2023-02-18T06:16:35.212Z,101135.75
2023-02-18T06:18:36.832Z,101124.09
2023-02-18T06:20:39.370Z,101125.78
2023-02-18T06:22:42.474Z,101123.25
2023-02-18T06:24:44.132Z,101138.28
2023-02-18T06:26:45.778Z,101131.88
2023-02-18T06:28:47.578Z,101125.41
2023-02-18T06:30:49.735Z,101135.38
2023-02-18T06:32:51.410Z,101132.69
2023-02-18T06:34:54.274Z,101123.56
2023-02-18T06:36:55.821Z,101131.69
2023-02-18T06:38:59.110Z,101130.66
2023-02-18T06:41:01.223Z,101131.53
2023-02-18T06:43:03.252Z,101126.97
2023-02-18T06:45:05.158Z,101124.91
2023-02-18T06:47:06.728Z,101120.19
2023-02-18T06:49:08.343Z,101129.97
2023-02-18T06:51:10.403Z,101131.66
2023-02-18T06:53:12.815Z,101128.94
2023-02-18T06:55:15.904Z,101126.25
2023-02-18T06:57:17.518Z,101128.59
2023-02-18T06:59:19.365Z,101129.44
2023-02-18T07:01:21.122Z,101123.19
2023-02-18T07:03:23.282Z,101122.34
2023-02-18T07:05:24.925Z,101119.47
2023-02-18T07:07:26.614Z,101105.75
2023-02-18T07:09:28.669Z,101112.84
2023-02-18T07:11:32.584Z,101117.25
2023-02-18T07:13:34.646Z,101106.28
2023-02-18T07:15:36.220Z,101099.81
2023-02-18T07:17:37.858Z,101101.69
2023-02-18T07:19:39.692Z,101097.13
2023-02-18T07:21:41.213Z,101107.78
2023-02-18T07:23:42.872Z,101100.50
2023-02-18T07:25:44.431Z,101099.47
2023-02-18T07:27:47.557Z,101094.25
2023-02-18T07:29:49.306Z,101100.50
2023-02-18T07:31:51.288Z,101105.72
2023-02-18T07:33:53.841Z,101101.16
2023-02-18T07:35:56.002Z,101097.25
2023-02-18T07:37:57.652Z,101098.09
2023-02-18T07:39:59.423Z,101094.22
2023-02-18T07:42:02.395Z,101103.19
2023-02-18T07:44:06.155Z,101101.97
2023-02-18T07:46:08.205Z,101096.56
2023-02-18T07:48:10.604Z,101111.59
2023-02-18T07:50:12.391Z,101107.03
2023-02-18T07:52:14.947Z,101116.00
2023-02-18T07:54:17.723Z,101125.78
2023-02-18T07:56:19.323Z,101109.38
2023-02-18T07:58:23.842Z,101111.56
2023-02-18T08:00:27.052Z,101113.91
2023-02-18T08:02:28.964Z,101107.59
2023-02-18T08:04:31.047Z,101102.47
2023-02-18T08:06:36.704Z,101105.75
2023-02-18T08:08:38.333Z,101103.53
2023-02-18T08:10:40.005Z,101104.19
2023-02-18T08:12:41.614Z,101091.69
2023-02-18T08:14:43.417Z,101089.28
2023-02-18T08:16:46.722Z,101097.38
2023-02-18T08:18:49.458Z,101086.56
2023-02-18T08:20:51.998Z,101091.44
2023-02-18T08:22:53.623Z,101096.31
2023-02-18T08:24:56.383Z,101090.69
2023-02-18T08:27:01.179Z,101098.66
2023-02-18T08:29:03.632Z,101102.69
2023-02-18T08:31:05.720Z,101099.63
2023-02-18T08:33:09.736Z,101097.38
2023-02-18T08:35:13.735Z,101090.09
2023-02-18T08:37:15.528Z,101089.56
2023-02-18T08:39:17.209Z,101086.66
2023-02-18T08:41:19.206Z,101081.91
2023-02-18T08:43:21.284Z,101087.97
2023-02-18T08:45:23.121Z,101084.41
2023-02-18T08:48:19.641Z,101096.94
2023-02-18T08:49:47.873Z,101094.72
2023-02-18T08:51:49.800Z,101085.56
2023-02-18T08:53:51.438Z,101090.44
2023-02-18T08:55:53.024Z,101086.69
2023-02-18T08:57:54.628Z,101070.63
2023-02-18T08:59:56.586Z,101081.09
2023-02-18T09:01:58.137Z,101095.50
2023-02-18T09:03:59.872Z,101095.13
2023-02-18T09:06:04.298Z,101094.75
2023-02-18T09:08:06.064Z,101096.22
2023-02-18T09:10:10.026Z,101095.91
2023-02-18T09:12:11.841Z,101070.28
2023-02-18T09:14:13.709Z,101085.53
2023-02-18T09:16:17.275Z,101079.91
2023-02-18T09:18:19.181Z,101077.19
2023-02-18T09:20:21.014Z,101063.47
2023-02-18T09:22:24.395Z,101064.09
2023-02-18T09:24:25.953Z,101061.03
2023-02-18T09:26:27.676Z,101051.69
2023-02-18T09:28:29.254Z,101056.75
2023-02-18T09:30:30.930Z,101058.94
2023-02-18T09:32:34.994Z,101053.78
2023-02-18T09:34:37.274Z,101059.66
2023-02-18T09:36:39.593Z,101045.75
2023-02-18T09:38:45.263Z,101057.88
2023-02-18T09:40:52.223Z,101042.91
2023-02-18T09:42:55.524Z,101044.06
2023-02-18T09:45:01.193Z,101046.38
2023-02-18T09:47:06.731Z,101046.84
2023-02-18T09:49:16.252Z,101038.53
2023-02-18T09:51:19.074Z,101028.69
2023-02-18T09:53:21.758Z,101021.41
2023-02-18T09:55:29.207Z,101026.44
2023-02-18T09:57:44.601Z,101025.22
2023-02-18T09:59:48.191Z,101034.41
2023-02-18T10:01:52.818Z,101032.34
2023-02-18T10:03:58.458Z,101024.03
2023-02-18T10:06:05.593Z,101016.72
2023-02-18T10:08:14.545Z,101009.41
2023-02-18T10:10:21.198Z,101019.22
2023-02-18T10:12:26.393Z,100993.13
2023-02-18T10:14:29.160Z,100998.53
2023-02-18T10:16:31.319Z,100996.88
2023-02-18T10:18:39.757Z,100992.09
2023-02-18T10:20:41.356Z,100994.19
2023-02-18T10:22:43.023Z,100984.16
2023-02-18T10:24:48.300Z,101003.16
2023-02-18T10:26:50.592Z,101000.44
2023-02-18T10:28:54.004Z,101001.84
2023-02-18T10:31:02.025Z,100998.94
2023-02-18T10:33:32.559Z,100993.50
2023-02-18T10:35:44.343Z,100992.50
2023-02-18T10:38:01.783Z,100989.78
2023-02-18T10:40:20.529Z,100992.31
2023-02-18T10:42:32.727Z,100992.50
2023-02-18T10:44:50.605Z,100991.25
2023-02-18T10:47:06.138Z,100993.97
2023-02-18T10:49:31.701Z,100993.97
2023-02-18T10:51:35.512Z,100975.19
2023-02-18T10:53:41.464Z,100979.78
2023-02-18T10:55:45.796Z,100980.78
2023-02-18T10:57:50.339Z,100976.22
2023-02-18T11:00:00.092Z,100979.94
2023-02-18T11:02:05.052Z,100966.59
2023-02-18T11:04:13.788Z,100964.06
2023-02-18T11:06:19.780Z,100972.59
2023-02-18T11:08:24.575Z,100966.31
2023-02-18T11:10:31.136Z,100964.63
2023-02-18T11:12:44.426Z,100965.84
2023-02-18T11:14:48.851Z,100958.28
2023-02-18T11:16:53.633Z,100962.03
2023-02-18T11:18:55.247Z,100959.91
2023-02-18T11:21:00.414Z,100958.59
2023-02-18T11:23:20.316Z,100969.00
2023-02-18T11:25:25.529Z,100966.84
2023-02-18T11:27:32.453Z,100969.09
2023-02-18T11:29:35.704Z,100976.06
2023-02-18T11:31:42.328Z,100969.34
2023-02-18T11:33:50.486Z,100968.06
2023-02-18T11:35:55.877Z,100966.06
2023-02-18T11:37:59.232Z,100961.22
2023-02-18T11:40:04.826Z,100959.09
2023-02-18T11:42:07.261Z,100950.50
2023-02-18T11:44:24.742Z,100938.97
2023-02-18T11:46:27.812Z,100945.16
2023-02-18T11:48:29.970Z,100951.97
2023-02-18T11:50:34.583Z,100952.53
2023-02-18T11:52:41.259Z,100957.47
2023-02-18T11:54:43.079Z,100949.09
2023-02-18T11:56:56.800Z,100948.59
2023-02-18T11:59:00.103Z,100940.75
2023-02-18T12:01:06.815Z,100946.16
2023-02-18T12:03:24.313Z,100936.72
2023-02-18T12:05:28.364Z,100935.63
2023-02-18T12:07:41.454Z,100937.00
2023-02-18T12:09:48.532Z,100940.09
2023-02-18T12:11:56.386Z,100944.84
2023-02-18T12:13:59.279Z,100932.50
2023-02-18T12:16:12.003Z,100928.28
2023-02-18T12:18:56.466Z,100942.88
2023-02-18T12:21:15.703Z,100939.69
2023-02-18T12:23:30.609Z,100942.75
2023-02-18T12:25:41.943Z,100949.38
2023-02-18T12:27:52.340Z,100944.50
2023-02-18T12:30:21.735Z,100944.50
2023-02-18T12:32:36.520Z,100947.56
2023-02-18T12:34:53.662Z,100952.34
2023-02-18T12:37:11.316Z,100950.16
2023-02-18T12:39:30.628Z,100955.09
2023-02-18T12:42:02.372Z,100954.63
2023-02-18T12:44:18.506Z,100962.09
2023-02-18T12:46:32.391Z,100960.78
2023-02-18T12:48:48.480Z,100956.75
2023-02-18T12:51:02.550Z,100952.50
2023-02-18T12:53:24.905Z,100959.97
2023-02-18T12:55:43.709Z,100947.66
2023-02-18T12:57:54.020Z,100935.31
2023-02-18T13:00:32.103Z,100937.38
2023-02-18T13:02:53.233Z,100932.16
2023-02-18T13:05:04.686Z,100927.78
2023-02-18T13:07:35.199Z,100927.78
2023-02-18T13:09:54.690Z,100938.75
2023-02-18T13:12:08.154Z,100935.38
2023-02-18T13:14:14.604Z,100935.56
2023-02-18T13:16:19.463Z,100928.47
2023-02-18T13:18:26.913Z,100931.38
2023-02-18T13:20:38.599Z,100927.00
2023-02-18T13:22:42.095Z,100928.00
2023-02-18T13:24:46.235Z,100925.28
2023-02-18T13:26:50.955Z,100927.34
2023-02-18T13:29:09.704Z,100927.16
2023-02-18T13:31:22.372Z,100933.59
2023-02-18T13:33:35.945Z,100930.91
2023-02-18T13:35:43.086Z,100933.78
2023-02-18T13:37:56.338Z,100932.94
2023-02-18T13:40:00.464Z,100926.88
2023-02-18T13:42:24.055Z,100919.56
2023-02-18T13:45:02.333Z,100928.72
2023-02-18T13:47:03.975Z,100928.91
2023-02-18T13:49:11.386Z,100920.13
2023-02-18T13:51:16.264Z,100926.56
2023-02-18T13:53:24.894Z,100917.44
2023-02-18T13:55:38.433Z,100907.47
2023-02-18T13:57:40.936Z,100906.63
2023-02-18T13:59:47.666Z,100910.97
2023-02-18T14:01:51.573Z,100906.41
2023-02-18T14:03:57.088Z,100910.16
2023-02-18T14:05:59.840Z,100900.16
2023-02-18T14:08:12.832Z,100904.41
2023-02-18T14:10:32.991Z,100907.94
2023-02-18T14:12:41.281Z,100907.25
2023-02-18T14:14:45.112Z,100904.56
2023-02-18T14:17:28.929Z,100908.97
2023-02-18T14:19:31.517Z,100925.19
2023-02-18T14:21:42.842Z,100919.78
2023-02-18T14:23:57.172Z,100914.38
2023-02-18T14:26:06.921Z,100925.19
2023-02-18T14:28:38.300Z,100924.97
2023-02-18T14:30:43.028Z,100916.38
2023-02-18T14:32:45.649Z,100924.69
2023-02-18T14:35:11.664Z,100926.38
2023-02-18T14:38:05.940Z,100937.84
2023-02-18T14:40:24.475Z,100942.63
2023-02-18T14:42:38.425Z,100929.25
2023-02-18T14:44:56.387Z,100926.56
2023-02-18T14:47:20.999Z,100924.88
2023-02-18T14:49:43.226Z,100918.81
2023-02-18T14:51:46.830Z,100915.25
2023-02-18T14:53:48.791Z,100907.16
2023-02-18T14:55:54.194Z,100906.31
2023-02-18T14:58:02.585Z,100892.78
2023-02-18T15:00:06.521Z,100905.47
2023-02-18T15:02:23.421Z,100917.78
2023-02-18T15:04:26.387Z,100930.47
2023-02-18T15:06:31.866Z,100939.59
2023-02-18T15:08:39.055Z,100942.28
2023-02-18T15:10:44.379Z,100954.97
2023-02-18T15:12:46.220Z,100958.88
2023-02-18T15:14:52.798Z,100966.78
2023-02-18T15:16:55.035Z,100977.81
2023-02-18T15:19:00.912Z,100975.94
2023-02-18T15:21:04.685Z,100969.84
2023-02-18T15:23:06.596Z,100980.88
2023-02-18T15:25:13.202Z,100983.38
2023-02-18T15:27:18.593Z,100980.88
2023-02-18T15:29:22.611Z,100985.44
2023-02-18T15:31:30.411Z,100996.25
2023-02-18T15:33:32.311Z,101001.81
2023-02-18T15:35:35.274Z,100996.59
2023-02-18T15:37:36.912Z,101006.72
2023-02-18T15:39:40.454Z,101016.03
2023-02-18T15:41:42.247Z,101020.75
2023-02-18T15:43:54.159Z,101020.75
2023-02-18T15:45:58.901Z,101021.97
2023-02-18T15:48:01.255Z,101024.81
2023-02-18T15:50:03.724Z,101018.94
2023-02-18T15:52:07.883Z,101018.94
2023-02-18T15:54:18.233Z,101008.31
2023-02-18T15:56:26.746Z,101014.25
2023-02-18T15:58:32.481Z,101020.66
2023-02-18T16:00:43.822Z,101011.19
2023-02-18T16:02:54.717Z,101013.25
2023-02-18T16:05:05.105Z,101015.47
2023-02-18T16:07:23.304Z,101009.38
2023-02-18T16:09:30.306Z,101022.38
2023-02-18T16:11:36.128Z,101039.78
2023-02-18T16:13:45.761Z,101047.41
2023-02-18T16:15:50.035Z,101043.19
2023-02-18T16:17:52.492Z,101041.84
2023-02-18T16:20:04.845Z,101050.31
2023-02-18T16:22:24.957Z,101051.47
2023-02-18T16:24:29.518Z,101057.41
2023-02-18T16:26:40.717Z,101056.06
2023-02-18T16:28:43.353Z,101056.53
2023-02-18T16:30:46.300Z,101069.34
2023-02-18T16:32:48.369Z,101066.16
2023-02-18T16:34:50.003Z,101081.00
2023-02-18T16:36:51.802Z,101076.78
2023-02-18T16:38:54.976Z,101073.78
2023-02-18T16:40:56.882Z,101079.66
2023-02-18T16:43:00.288Z,101084.38
2023-02-18T16:45:01.859Z,101087.59
2023-02-18T16:47:03.911Z,101094.34
2023-02-18T16:49:05.447Z,101095.69
2023-02-18T16:51:11.394Z,101097.88
2023-02-18T16:53:14.085Z,101100.06
2023-02-18T16:55:20.943Z,101103.94
2023-02-18T16:57:22.723Z,101106.13
2023-02-18T16:59:24.317Z,101108.31
2023-02-18T17:01:28.664Z,101107.78
2023-02-18T17:03:31.750Z,101109.97
2023-02-18T17:05:35.088Z,101106.78
2023-02-18T17:07:36.690Z,101112.50
2023-02-18T17:09:40.075Z,101126.31
2023-02-18T17:11:44.720Z,101133.72
2023-02-18T17:13:46.862Z,101137.75
2023-02-18T17:15:51.785Z,101137.94
2023-02-18T17:17:53.866Z,101154.59
2023-02-18T17:19:55.601Z,101166.72
2023-02-18T17:21:57.415Z,101166.03
2023-02-18T17:23:58.998Z,101167.19
2023-02-18T17:26:00.957Z,101162.47
2023-02-18T17:28:05.062Z,101175.25
2023-02-18T17:30:07.317Z,101174.56
2023-02-18T17:32:08.964Z,101174.91
2023-02-18T17:34:15.420Z,101184.97
2023-02-18T17:36:18.165Z,101189.84
2023-02-18T17:38:20.233Z,101192.00
2023-02-18T17:40:25.853Z,101207.50
2023-02-18T17:42:27.428Z,101212.38
2023-02-18T17:44:31.619Z,101215.22
2023-02-18T17:46:33.213Z,101221.94
2023-02-18T17:48:34.858Z,101229.16
2023-02-18T17:50:36.721Z,101227.66
2023-02-18T17:52:38.528Z,101226.97
2023-02-18T17:54:40.089Z,101237.91
2023-02-18T17:56:41.923Z,101236.38
2023-02-18T17:58:43.477Z,101239.38
2023-02-18T18:00:49.530Z,101239.53
2023-02-18T18:02:51.604Z,101234.47
2023-02-18T18:04:54.248Z,101240.84
2023-02-18T18:06:56.229Z,101252.63
2023-02-18T18:08:58.887Z,101248.41
2023-02-18T18:11:01.724Z,101252.09
2023-02-18T18:13:05.763Z,101259.63
2023-02-18T18:15:21.269Z,101243.66
2023-02-18T18:17:24.462Z,101255.56
2023-02-18T18:19:26.114Z,101254.03
2023-02-18T18:21:31.027Z,101262.28
2023-02-18T18:23:33.095Z,101256.34
2023-02-18T18:25:38.550Z,101262.75
2023-02-18T18:27:40.403Z,101257.69
2023-02-18T18:29:44.530Z,101262.22
2023-02-18T18:31:47.401Z,101268.72
2023-02-18T18:33:52.152Z,101267.22
2023-02-18T18:35:55.989Z,101262.81
2023-02-18T18:37:58.485Z,101259.44
2023-02-18T18:40:01.133Z,101260.59
2023-02-18T18:42:02.805Z,101266.97
2023-02-18T18:44:05.064Z,101260.06
2023-02-18T18:46:06.802Z,101267.44
2023-02-18T18:48:08.506Z,101274.00
2023-02-18T18:50:11.742Z,101277.66
2023-02-18T18:52:16.305Z,101280.38
2023-02-18T18:54:18.264Z,101288.75
2023-02-18T18:56:20.205Z,101291.44
2023-02-18T18:58:21.962Z,101283.50
2023-02-18T19:00:26.246Z,101289.75
2023-02-18T19:02:28.241Z,101292.44
2023-02-18T19:04:29.881Z,101301.50
2023-02-18T19:06:33.083Z,101296.97
2023-02-18T19:08:34.707Z,101286.19
2023-02-18T19:10:38.301Z,101289.75
2023-02-18T19:12:40.308Z,101302.22
2023-02-18T19:14:41.839Z,101295.97
2023-02-18T19:16:43.412Z,101296.97
2023-02-18T19:18:45.709Z,101301.50
2023-02-18T19:20:48.318Z,101300.50
2023-02-18T19:22:52.013Z,101306.75
2023-02-18T19:24:53.685Z,101315.50
2023-02-18T19:26:55.323Z,101317.38
2023-02-18T19:28:56.977Z,101311.13
2023-02-18T19:30:58.693Z,101316.53
2023-02-18T19:33:01.699Z,101315.50
2023-02-18T19:35:03.664Z,101327.13
2023-02-18T19:37:05.488Z,101310.13
2023-02-18T19:39:09.510Z,101319.91
2023-02-18T19:41:14.565Z,101315.69
2023-02-18T19:43:16.607Z,101315.38
2023-02-18T19:45:20.988Z,101300.06
2023-02-18T19:47:23.635Z,101309.13
2023-02-18T19:49:26.360Z,101318.91
2023-02-18T19:51:28.148Z,101318.06
2023-02-18T19:53:30.257Z,101320.75
2023-02-18T19:55:34.510Z,101326.97
2023-02-18T19:57:36.346Z,101334.22
2023-02-18T19:59:38.128Z,101336.06
2023-02-18T20:01:40.485Z,101340.59
2023-02-18T20:03:42.882Z,101345.81
2023-02-18T20:05:44.606Z,101345.81
2023-02-18T20:07:46.687Z,101345.81
2023-02-18T20:09:52.024Z,101333.22
2023-02-18T20:11:56.691Z,101332.38
2023-02-18T20:13:58.388Z,101341.97
2023-02-18T20:16:00.202Z,101341.97
2023-02-18T20:18:02.032Z,101336.59
2023-02-18T20:20:04.247Z,101337.44
2023-02-18T20:22:05.928Z,101337.44
2023-02-18T20:24:10.006Z,101341.00
2023-02-18T20:26:13.256Z,101345.53
2023-02-18T20:28:16.527Z,101331.06
2023-02-18T20:30:19.639Z,101330.06
2023-02-18T20:32:24.365Z,101335.28
2023-02-18T20:34:26.700Z,101328.19
2023-02-18T20:36:28.949Z,101334.31
2023-02-18T20:38:31.083Z,101331.59
2023-02-18T20:40:32.685Z,101325.38
2023-02-18T20:42:34.282Z,101328.91
2023-02-18T20:44:37.699Z,101330.63
2023-02-18T20:46:39.924Z,101336.13
2023-02-18T20:48:43.739Z,101330.75
2023-02-18T20:50:45.273Z,101334.31
2023-02-18T20:52:48.334Z,101335.28
2023-02-18T20:54:51.450Z,101338.84
2023-02-18T20:56:53.036Z,101337.00
2023-02-18T20:58:54.757Z,101338.84
2023-02-18T21:01:00.010Z,101345.22
2023-02-18T21:03:01.759Z,101350.59
2023-02-18T21:05:03.929Z,101355.00
2023-02-18T21:07:05.864Z,101349.59
2023-02-18T21:09:07.894Z,101354.13
2023-02-18T21:11:12.201Z,101358.53
2023-02-18T21:13:15.742Z,101353.16
2023-02-18T21:15:17.418Z,101355.66
2023-02-18T21:17:23.286Z,101346.59
2023-02-18T21:19:25.372Z,101348.31
2023-02-18T21:21:27.278Z,101349.28
2023-02-18T21:23:29.268Z,101363.59
2023-02-18T21:25:31.517Z,101354.53
2023-02-18T21:27:33.168Z,101362.63
2023-02-18T21:29:34.921Z,101358.09
2023-02-18T21:31:39.041Z,101353.53
2023-02-18T21:33:44.738Z,101353.53
2023-02-18T21:35:46.741Z,101359.94
2023-02-18T21:37:48.904Z,101360.78
2023-02-18T21:39:50.476Z,101356.22
2023-02-18T21:41:52.183Z,101361.59
2023-02-18T21:43:54.422Z,101361.59
2023-02-18T21:46:05.695Z,101356.06
2023-02-18T21:48:07.226Z,101349.84
2023-02-18T21:50:11.363Z,101350.69
2023-02-18T21:52:12.922Z,101351.53
2023-02-18T21:54:15.683Z,101355.09
2023-02-18T21:56:17.443Z,101350.69
2023-02-18T21:58:19.089Z,101345.31
2023-02-18T22:00:21.435Z,101345.44
2023-02-18T22:02:25.392Z,101357.91
2023-02-18T22:04:29.832Z,101359.75
2023-02-18T22:06:33.115Z,101363.47
2023-02-18T22:08:34.905Z,101368.00
2023-02-18T22:10:38.460Z,101380.44
2023-02-18T22:12:40.382Z,101378.91
2023-02-18T22:14:42.668Z,101377.22
2023-02-18T22:16:45.454Z,101383.44
2023-02-18T22:18:48.699Z,101388.69
2023-02-18T22:20:50.645Z,101383.44
2023-02-18T22:22:54.980Z,101376.38
2023-02-18T22:24:56.747Z,101383.44
2023-02-18T22:26:59.636Z,101381.59
2023-02-18T22:29:01.583Z,101379.75
2023-02-18T22:31:06.874Z,101382.47
2023-02-18T22:33:08.545Z,101378.91
2023-02-18T22:35:10.159Z,101381.59
2023-02-18T22:37:11.884Z,101377.06
2023-02-18T22:39:16.085Z,101378.06
2023-02-18T22:41:22.457Z,101373.53
2023-02-18T22:43:23.978Z,101378.91
2023-02-18T22:45:25.982Z,101388.84
2023-02-18T22:47:28.106Z,101380.63
2023-02-18T22:49:30.208Z,101381.59
2023-02-18T22:51:35.616Z,101378.91
2023-02-18T22:53:38.134Z,101377.06
2023-02-18T22:55:41.161Z,101383.31
2023-02-18T22:57:43.032Z,101372.53
2023-02-18T22:59:45.653Z,101364.47
2023-02-18T23:01:49.425Z,101369.00
2023-02-18T23:03:52.594Z,101369.84
2023-02-18T23:05:54.437Z,101375.06
2023-02-18T23:07:56.297Z,101375.06
2023-02-18T23:09:58.128Z,101385.84
2023-02-18T23:12:01.600Z,101381.47
2023-02-18T23:14:03.272Z,101385.84
2023-02-18T23:16:08.318Z,101381.28
2023-02-18T23:18:09.889Z,101380.44
2023-02-18T23:20:11.469Z,101384.16
2023-02-18T23:22:16.114Z,101383.13
2023-02-18T23:24:18.108Z,101377.75
2023-02-18T23:26:21.542Z,101377.75
2023-02-18T23:28:24.542Z,101370.53
2023-02-18T23:30:26.198Z,101363.47
2023-02-18T23:32:29.039Z,101366.97
2023-02-18T23:34:31.031Z,101366.16
2023-02-18T23:36:34.664Z,101365.31
2023-02-18T23:38:36.471Z,101372.38
2023-02-18T23:40:38.542Z,101368.84
2023-02-18T23:42:40.392Z,101382.31
2023-02-18T23:44:43.574Z,101379.75
2023-02-18T23:46:46.209Z,101383.31
2023-02-18T23:48:47.953Z,101377.06
2023-02-18T23:50:49.637Z,101378.06